createdAt,value
2022-11-03T00:01:39.563Z,2.22
2022-11-03T00:04:09.735Z,2.15
2022-11-03T00:06:38.700Z,2.20
2022-11-03T00:09:09.594Z,2.85
2022-11-03T00:11:40.069Z,2.50
2022-11-03T00:14:10.332Z,1.92
2022-11-03T00:16:41.191Z,2.03
2022-11-03T00:19:11.019Z,2.60
2022-11-03T00:21:40.172Z,2.35
2022-11-03T00:24:09.474Z,2.83
2022-11-03T00:26:38.735Z,2.45
2022-11-03T00:29:09.337Z,3.10
2022-11-03T00:31:40.807Z,2.50
2022-11-03T00:34:10.073Z,2.13
2022-11-03T00:36:40.240Z,2.40
2022-11-03T00:39:08.999Z,2.67
2022-11-03T00:41:38.072Z,2.63
2022-11-03T00:44:07.093Z,2.72
2022-11-03T00:46:36.217Z,2.13
2022-11-03T00:49:06.407Z,1.90
2022-11-03T00:51:36.265Z,2.22
2022-11-03T00:54:07.404Z,2.30
2022-11-03T00:56:37.387Z,2.30
2022-11-03T00:59:06.723Z,2.53
2022-11-03T01:01:42.125Z,1.98
2022-11-03T01:04:32.135Z,2.67
2022-11-03T01:07:01.841Z,1.67
2022-11-03T01:09:31.644Z,2.10
2022-11-03T01:12:01.824Z,2.47
2022-11-03T01:14:33.233Z,2.50
2022-11-03T01:17:01.895Z,2.20
2022-11-03T01:19:31.614Z,2.40
2022-11-03T01:22:00.207Z,2.13
2022-11-03T01:24:28.548Z,1.95
2022-11-03T01:26:56.849Z,2.40
2022-11-03T01:29:25.230Z,1.33
2022-11-03T01:31:53.582Z,2.20
2022-11-03T01:34:22.998Z,2.38
2022-11-03T01:36:52.715Z,2.83
2022-11-03T01:39:21.341Z,2.92
2022-11-03T01:41:51.543Z,3.38
2022-11-03T01:44:31.697Z,2.47
2022-11-03T01:47:08.681Z,2.90
2022-11-03T01:49:41.406Z,3.17
2022-11-03T01:52:14.812Z,2.72
2022-11-03T01:54:46.172Z,3.22
2022-11-03T01:57:18.929Z,2.88
2022-11-03T01:59:48.629Z,3.15
2022-11-03T02:02:25.394Z,3.13
2022-11-03T02:04:53.931Z,3.10
2022-11-03T02:07:26.663Z,3.35
2022-11-03T02:09:54.988Z,3.38
2022-11-03T02:12:23.650Z,2.85
2022-11-03T02:14:55.191Z,3.05
2022-11-03T02:17:24.651Z,2.83
2022-11-03T02:19:57.656Z,3.00
2022-11-03T02:22:42.577Z,2.80
2022-11-03T02:25:16.778Z,2.53
2022-11-03T02:27:46.721Z,2.72
2022-11-03T02:30:15.091Z,3.08
2022-11-03T02:32:51.616Z,2.70
2022-11-03T02:35:24.033Z,2.10
2022-11-03T02:37:56.041Z,2.97
2022-11-03T02:40:29.529Z,2.80
2022-11-03T02:43:00.280Z,2.50
2022-11-03T02:45:29.771Z,2.60
2022-11-03T02:48:00.547Z,3.10
2022-11-03T02:50:30.246Z,2.22
2022-11-03T02:52:58.876Z,2.80
2022-11-03T02:55:34.285Z,2.40
2022-11-03T02:58:09.418Z,1.73
2022-11-03T03:00:43.317Z,2.30
2022-11-03T03:03:14.724Z,2.60
2022-11-03T03:05:44.027Z,1.50
2022-11-03T03:08:13.174Z,1.60
2022-11-03T03:10:43.995Z,1.65
2022-11-03T03:13:17.061Z,2.65
2022-11-03T03:15:48.025Z,2.72
2022-11-03T03:18:25.572Z,2.47
2022-11-03T03:20:57.747Z,1.70
2022-11-03T03:23:28.606Z,2.38
2022-11-03T03:26:01.416Z,1.52
2022-11-03T03:28:34.984Z,1.90
2022-11-03T03:31:06.826Z,2.78
2022-11-03T03:33:36.045Z,2.38
2022-11-03T03:36:06.792Z,2.60
2022-11-03T03:38:39.061Z,2.85
2022-11-03T03:41:10.875Z,2.47
2022-11-03T03:43:41.213Z,2.60
2022-11-03T03:46:11.857Z,1.75
2022-11-03T03:48:40.429Z,1.85
2022-11-03T03:51:09.015Z,2.58
2022-11-03T03:53:37.336Z,2.80
2022-11-03T03:56:06.507Z,1.33
2022-11-03T03:58:34.857Z,2.40
2022-11-03T04:01:04.819Z,2.35
2022-11-03T04:03:33.122Z,2.67
2022-11-03T04:06:01.514Z,2.17
2022-11-03T04:08:29.917Z,1.55
2022-11-03T04:11:15.527Z,2.30
2022-11-03T04:14:01.600Z,2.00
2022-11-03T04:16:48.894Z,1.67
2022-11-03T04:19:34.413Z,2.28
2022-11-03T04:22:17.546Z,2.75
2022-11-03T04:24:46.712Z,2.08
2022-11-03T04:27:30.911Z,1.88
2022-11-03T04:30:02.932Z,2.88
2022-11-03T04:32:33.594Z,2.60
2022-11-03T04:35:02.092Z,1.92
2022-11-03T04:37:31.602Z,2.63
2022-11-03T04:40:01.580Z,2.78
2022-11-03T04:42:32.957Z,2.92
2022-11-03T04:45:02.758Z,2.20
2022-11-03T04:47:33.744Z,2.83
2022-11-03T04:50:02.086Z,3.38
2022-11-03T04:52:31.924Z,3.40
2022-11-03T04:55:00.278Z,2.50
2022-11-03T04:57:29.639Z,3.30
2022-11-03T04:59:58.188Z,3.13
2022-11-03T05:02:27.184Z,2.83
2022-11-03T05:04:57.051Z,2.30
2022-11-03T05:07:30.576Z,2.28
2022-11-03T05:09:59.028Z,2.15
2022-11-03T05:12:27.606Z,2.03
2022-11-03T05:14:58.722Z,3.15
2022-11-03T05:17:28.975Z,3.10
2022-11-03T05:20:00.391Z,2.90
2022-11-03T05:22:35.114Z,3.25
2022-11-03T05:25:05.291Z,3.75
2022-11-03T05:27:33.768Z,3.60
2022-11-03T05:30:02.154Z,3.67
2022-11-03T05:32:34.821Z,3.35
2022-11-03T05:35:05.149Z,3.00
2022-11-03T05:37:34.671Z,3.35
2022-11-03T05:40:06.633Z,2.00
2022-11-03T05:42:36.725Z,2.28
2022-11-03T05:45:14.444Z,2.50
2022-11-03T05:47:45.815Z,3.05
2022-11-03T05:50:25.260Z,2.50
2022-11-03T05:53:15.546Z,3.97
2022-11-03T05:55:44.223Z,2.92
2022-11-03T05:58:17.660Z,2.20
2022-11-03T06:00:48.745Z,2.70
2022-11-03T06:03:18.426Z,2.78
2022-11-03T06:05:48.542Z,3.63
2022-11-03T06:08:20.883Z,2.72
2022-11-03T06:10:51.608Z,3.42
2022-11-03T06:13:22.540Z,2.85
2022-11-03T06:15:55.014Z,3.10
2022-11-03T06:18:24.922Z,2.90
2022-11-03T06:20:56.419Z,2.60
2022-11-03T06:23:26.300Z,2.65
2022-11-03T06:25:55.714Z,2.80
2022-11-03T06:28:27.273Z,2.70
2022-11-03T06:30:55.643Z,2.47
2022-11-03T06:33:26.245Z,3.25
2022-11-03T06:36:01.049Z,3.47
2022-11-03T06:40:59.945Z,3.22
2022-11-03T06:43:41.172Z,2.97
2022-11-03T06:46:15.369Z,2.63
2022-11-03T06:48:43.829Z,2.88
2022-11-03T06:51:19.977Z,3.85
2022-11-03T06:53:50.524Z,3.78
2022-11-03T06:56:22.962Z,3.33
2022-11-03T06:58:51.727Z,3.22
2022-11-03T07:01:22.347Z,3.38
2022-11-03T07:03:51.041Z,2.88
2022-11-03T07:06:24.794Z,2.92
2022-11-03T07:08:57.488Z,2.88
2022-11-03T07:11:27.352Z,2.72
2022-11-03T07:13:58.273Z,2.80
2022-11-03T07:16:29.789Z,3.08
2022-11-03T07:19:01.029Z,3.20
2022-11-03T07:21:36.475Z,2.80
2022-11-03T07:24:08.473Z,3.05
2022-11-03T07:26:36.823Z,3.15
2022-11-03T07:29:05.330Z,3.42
2022-11-03T07:31:33.704Z,2.70
2022-11-03T07:34:02.059Z,3.35
2022-11-03T07:36:34.416Z,3.78
2022-11-03T07:39:03.545Z,3.80
2022-11-03T07:41:34.919Z,4.15
2022-11-03T07:44:03.698Z,2.58
2022-11-03T07:46:32.970Z,2.53
2022-11-03T07:49:03.086Z,2.85
2022-11-03T07:51:34.543Z,3.55
2022-11-03T07:54:05.422Z,2.70
2022-11-03T07:56:37.150Z,3.50
2022-11-03T07:59:13.607Z,3.22
2022-11-03T08:01:43.916Z,2.45
2022-11-03T08:04:14.733Z,2.92
2022-11-03T08:06:44.516Z,2.92
2022-11-03T08:09:12.946Z,2.92
2022-11-03T08:11:41.347Z,3.72
2022-11-03T08:14:10.487Z,3.38
2022-11-03T08:16:39.081Z,3.00
2022-11-03T08:19:07.802Z,2.50
2022-11-03T08:21:36.471Z,2.70
2022-11-03T08:24:07.005Z,3.22
2022-11-03T08:26:35.337Z,2.90
2022-11-03T08:29:03.688Z,2.50
2022-11-03T08:31:32.003Z,3.22
2022-11-03T08:34:00.518Z,2.58
2022-11-03T08:36:28.862Z,1.65
2022-11-03T08:38:57.419Z,2.80
2022-11-03T08:41:27.193Z,2.80
2022-11-03T08:43:55.738Z,3.10
2022-11-03T08:46:24.092Z,2.58
2022-11-03T08:48:52.895Z,2.38
2022-11-03T08:51:21.564Z,2.70
2022-11-03T08:53:50.865Z,2.50
2022-11-03T08:56:22.137Z,3.50
2022-11-03T08:58:53.053Z,2.42
2022-11-03T09:01:21.992Z,2.40
2022-11-03T09:03:50.525Z,2.85
2022-11-03T09:06:19.169Z,2.92
2022-11-03T09:11:36.121Z,2.10
2022-11-03T09:14:07.882Z,2.50
2022-11-03T09:16:36.330Z,1.92
2022-11-03T09:19:04.714Z,3.35
2022-11-03T09:21:33.066Z,2.50
2022-11-03T09:24:01.476Z,2.92
2022-11-03T09:26:30.144Z,2.42
2022-11-03T09:28:58.673Z,2.60
2022-11-03T09:31:30.575Z,2.28
2022-11-03T09:33:59.100Z,2.22
2022-11-03T09:36:27.811Z,2.83
2022-11-03T09:38:56.805Z,2.92
2022-11-03T09:41:27.955Z,3.35
2022-11-03T09:44:12.697Z,2.92
2022-11-03T09:46:42.736Z,3.80
2022-11-03T09:49:14.102Z,3.75
2022-11-03T09:51:43.073Z,2.50
2022-11-03T09:54:14.480Z,2.65
2022-11-03T09:56:43.665Z,2.70
2022-11-03T09:59:16.167Z,2.83
2022-11-03T10:01:48.944Z,2.78
2022-11-03T10:04:21.597Z,3.00
2022-11-03T10:06:50.767Z,4.20
2022-11-03T10:09:21.017Z,2.65
2022-11-03T10:11:50.001Z,2.78
2022-11-03T10:14:19.943Z,3.10
2022-11-03T10:16:54.401Z,3.10
2022-11-03T10:19:22.841Z,3.25
2022-11-03T10:21:52.762Z,3.25
2022-11-03T10:24:21.356Z,2.90
2022-11-03T10:26:51.350Z,3.20
2022-11-03T10:29:21.653Z,2.83
2022-11-03T10:31:54.343Z,2.45
2022-11-03T10:34:35.028Z,3.00
2022-11-03T10:37:20.917Z,2.80
2022-11-03T10:39:50.454Z,2.20
2022-11-03T10:42:23.853Z,3.15
2022-11-03T10:44:54.200Z,3.33
2022-11-03T10:47:33.915Z,3.13
2022-11-03T10:50:20.736Z,2.92
2022-11-03T10:52:49.372Z,2.30
2022-11-03T10:55:22.075Z,3.20
2022-11-03T10:57:55.639Z,4.05
2022-11-03T11:00:24.506Z,3.55
2022-11-03T11:03:00.848Z,3.53
2022-11-03T11:05:29.236Z,3.50
2022-11-03T11:07:58.960Z,3.55
2022-11-03T11:10:28.599Z,2.60
2022-11-03T11:13:05.504Z,3.28
2022-11-03T11:15:40.219Z,2.75
2022-11-03T11:18:10.356Z,3.17
2022-11-03T11:20:41.568Z,3.42
2022-11-03T11:23:49.994Z,2.75
2022-11-03T11:26:33.771Z,3.20
2022-11-03T11:29:36.109Z,3.42
2022-11-03T11:32:54.098Z,3.25
2022-11-03T11:36:05.640Z,3.45
2022-11-03T11:38:56.499Z,3.47
2022-11-03T11:41:58.036Z,3.40
2022-11-03T11:44:53.649Z,3.40
2022-11-03T11:47:47.291Z,4.15
2022-11-03T11:50:31.910Z,3.85
2022-11-03T11:53:06.424Z,4.40
2022-11-03T11:55:43.197Z,2.97
2022-11-03T11:58:20.663Z,4.55
2022-11-03T12:00:53.792Z,4.53
2022-11-03T12:03:28.211Z,4.28
2022-11-03T12:05:56.763Z,5.72
2022-11-03T12:08:34.131Z,5.43
2022-11-03T12:11:05.855Z,5.00
2022-11-03T12:13:45.808Z,5.40
2022-11-03T12:16:35.053Z,5.47
2022-11-03T12:19:35.667Z,6.18
2022-11-03T12:22:05.281Z,5.88
2022-11-03T12:24:39.591Z,5.70
2022-11-03T12:27:35.423Z,5.60
2022-11-03T12:30:06.519Z,5.85
2022-11-03T12:32:36.843Z,6.15
2022-11-03T12:35:07.167Z,5.95
2022-11-03T12:37:37.029Z,5.10
2022-11-03T12:40:06.527Z,5.05
2022-11-03T12:42:36.384Z,6.10
2022-11-03T12:45:05.303Z,4.25
2022-11-03T12:47:33.766Z,4.95
2022-11-03T12:50:02.372Z,5.78
2022-11-03T12:52:33.345Z,4.90
2022-11-03T12:55:02.437Z,6.20
2022-11-03T12:57:31.469Z,6.43
2022-11-03T13:00:01.806Z,6.53
2022-11-03T13:02:32.826Z,6.30
2022-11-03T13:05:16.020Z,6.60
2022-11-03T13:07:45.730Z,5.28
2022-11-03T13:10:14.425Z,6.05
2022-11-03T13:12:44.892Z,5.40
2022-11-03T13:15:16.265Z,6.63
2022-11-03T13:18:07.641Z,7.78
2022-11-03T13:20:33.938Z,7.15
2022-11-03T13:23:02.578Z,7.25
2022-11-03T13:25:31.147Z,7.47
2022-11-03T13:28:00.040Z,8.00
2022-11-03T13:30:31.807Z,7.78
2022-11-03T13:33:00.580Z,7.38
2022-11-03T13:35:29.256Z,7.03
2022-11-03T13:37:57.752Z,7.32
2022-11-03T13:40:54.894Z,7.50
2022-11-03T13:43:15.146Z,4.88
2022-11-03T13:45:45.009Z,5.35
2022-11-03T13:51:02.500Z,6.60
2022-11-03T13:56:23.423Z,4.30
2022-11-03T14:01:45.558Z,5.28
2022-11-03T14:07:04.026Z,6.43
2022-11-03T14:09:32.879Z,4.32
2022-11-03T14:12:18.809Z,5.72
2022-11-03T14:14:47.163Z,8.10
2022-11-03T14:17:16.981Z,6.07
2022-11-03T14:19:51.808Z,5.78
2022-11-03T14:22:21.394Z,4.32
2022-11-03T14:24:49.943Z,3.90
2022-11-03T14:27:18.977Z,4.05
2022-11-03T14:29:49.993Z,3.83
2022-11-03T14:32:21.777Z,4.03
2022-11-03T14:34:51.376Z,4.70
2022-11-03T14:37:20.222Z,4.85
2022-11-03T14:39:49.188Z,4.72
2022-11-03T14:42:17.140Z,4.80
2022-11-03T14:44:46.551Z,4.68
2022-11-03T14:47:17.756Z,4.40
2022-11-03T14:49:48.310Z,4.18
2022-11-03T14:52:18.241Z,4.75
2022-11-03T14:54:46.917Z,3.15
2022-11-03T14:57:15.439Z,3.55
2022-11-03T14:59:46.610Z,4.05
2022-11-03T15:02:16.455Z,5.15
2022-11-03T15:04:45.054Z,4.00
2022-11-03T15:07:14.810Z,4.78
2022-11-03T15:09:43.180Z,3.20
2022-11-03T15:12:11.745Z,4.70
2022-11-03T15:14:40.112Z,4.75
2022-11-03T15:17:08.471Z,4.50
2022-11-03T15:19:36.865Z,4.63
2022-11-03T15:22:05.233Z,4.70
2022-11-03T15:27:23.356Z,4.90
2022-11-03T15:29:51.726Z,5.10
2022-11-03T15:32:20.091Z,5.20
2022-11-03T15:34:48.521Z,4.60
2022-11-03T15:37:16.916Z,4.70
2022-11-03T15:39:46.692Z,4.93
2022-11-03T15:42:15.382Z,5.82
2022-11-03T15:44:43.834Z,5.45
2022-11-03T15:47:25.834Z,4.93
2022-11-03T15:49:54.240Z,4.55
2022-11-03T15:52:23.298Z,5.80
2022-11-03T15:54:53.128Z,5.68
2022-11-03T15:57:21.858Z,3.97
2022-11-03T15:59:52.656Z,4.47
2022-11-03T16:05:12.393Z,6.68
2022-11-03T16:07:40.996Z,4.43
2022-11-03T16:10:11.240Z,5.53
2022-11-03T16:12:41.218Z,4.50
2022-11-03T16:15:11.182Z,5.43
2022-11-03T16:17:45.249Z,5.85
2022-11-03T16:20:14.225Z,3.22
2022-11-03T16:22:42.697Z,5.32
2022-11-03T16:25:15.741Z,5.53
2022-11-03T16:27:47.295Z,5.72
2022-11-03T16:30:15.983Z,4.40
2022-11-03T16:32:53.241Z,5.95
2022-11-03T16:35:23.638Z,5.97
2022-11-03T16:37:51.995Z,5.60
2022-11-03T16:40:21.855Z,6.13
2022-11-03T16:42:51.422Z,5.28
2022-11-03T16:45:21.386Z,4.22
2022-11-03T16:47:51.330Z,4.32
2022-11-03T16:50:20.410Z,4.32
2022-11-03T16:52:52.148Z,4.88
2022-11-03T16:55:22.088Z,4.68
2022-11-03T16:57:50.524Z,5.15
2022-11-03T17:00:20.772Z,6.28
2022-11-03T17:02:49.481Z,6.28
2022-11-03T17:05:25.353Z,5.55
2022-11-03T17:07:54.475Z,6.30
2022-11-03T17:10:25.189Z,6.32
2022-11-03T17:12:54.616Z,6.15
2022-11-03T17:15:23.296Z,5.03
2022-11-03T17:17:52.912Z,6.20
2022-11-03T17:20:21.353Z,5.90
2022-11-03T17:22:50.141Z,5.45
2022-11-03T17:25:19.658Z,6.13
2022-11-03T17:27:51.332Z,5.40
2022-11-03T17:33:20.402Z,5.72
2022-11-03T17:35:49.042Z,5.80
2022-11-03T17:38:19.786Z,5.65
2022-11-03T17:40:49.398Z,5.38
2022-11-03T17:43:22.625Z,4.38
2022-11-03T17:45:52.423Z,4.68
2022-11-03T17:48:26.829Z,3.38
2022-11-03T17:50:57.328Z,4.72
2022-11-03T17:53:27.976Z,4.45
2022-11-03T17:56:29.663Z,2.93
2022-11-03T17:58:54.075Z,4.13
2022-11-03T18:01:27.651Z,4.40
2022-11-03T18:03:56.811Z,4.55
2022-11-03T18:06:26.359Z,4.25
2022-11-03T18:08:54.945Z,4.43
2022-11-03T18:11:45.077Z,4.25
2022-11-03T18:14:17.759Z,4.32
2022-11-03T18:16:47.090Z,4.90
2022-11-03T18:19:17.378Z,4.53
2022-11-03T18:21:46.066Z,4.82
2022-11-03T18:24:16.474Z,4.55
2022-11-03T18:26:45.331Z,4.43
2022-11-03T18:29:15.260Z,3.92
2022-11-03T18:31:47.159Z,4.50
2022-11-03T18:34:17.700Z,4.20
2022-11-03T18:36:46.129Z,5.22
2022-11-03T18:39:20.160Z,4.80
2022-11-03T18:41:48.537Z,5.07
2022-11-03T18:44:25.587Z,4.88
2022-11-03T18:46:58.249Z,4.05
2022-11-03T18:49:28.174Z,5.30
2022-11-03T18:52:02.901Z,5.05
2022-11-03T18:54:37.889Z,5.53
2022-11-03T18:57:08.902Z,4.65
2022-11-03T18:59:41.231Z,5.32
2022-11-03T19:02:17.206Z,5.78
2022-11-03T19:04:45.930Z,5.85
2022-11-03T19:07:15.964Z,5.90
2022-11-03T19:09:47.446Z,6.18
2022-11-03T19:12:19.110Z,6.63
2022-11-03T19:14:51.333Z,5.50
2022-11-03T19:17:23.395Z,6.20
2022-11-03T19:19:53.992Z,6.32
2022-11-03T19:22:23.902Z,6.38
2022-11-03T19:24:52.396Z,5.80
2022-11-03T19:27:23.754Z,6.72
2022-11-03T19:29:53.798Z,6.45
2022-11-03T19:32:24.640Z,6.07
2022-11-03T19:34:56.602Z,6.43
2022-11-03T19:37:25.031Z,6.38
2022-11-03T19:39:53.535Z,6.22
2022-11-03T19:42:32.031Z,6.43
2022-11-03T19:45:04.889Z,6.55
2022-11-03T19:50:36.075Z,5.93
2022-11-03T19:53:07.500Z,6.30
2022-11-03T19:55:37.810Z,6.55
2022-11-03T19:58:13.081Z,4.40
2022-11-03T20:00:43.349Z,6.72
2022-11-03T20:03:17.112Z,7.13
2022-11-03T20:05:52.606Z,7.18
2022-11-03T20:08:25.659Z,5.38
2022-11-03T20:10:54.354Z,8.80
2022-11-03T20:13:24.383Z,6.85
2022-11-03T20:16:00.545Z,5.22
2022-11-03T20:18:29.746Z,7.05
2022-11-03T20:20:58.513Z,6.82
2022-11-03T20:23:29.210Z,6.88
2022-11-03T20:25:57.961Z,7.47
2022-11-03T20:28:28.585Z,6.05
2022-11-03T20:31:01.337Z,6.65
2022-11-03T20:33:29.864Z,7.47
2022-11-03T20:35:58.719Z,7.10
2022-11-03T20:38:27.925Z,7.32
2022-11-03T20:40:59.376Z,5.28
2022-11-03T20:43:30.989Z,7.18
2022-11-03T20:46:01.129Z,7.53
2022-11-03T20:48:29.785Z,6.22
2022-11-03T20:50:59.891Z,5.32
2022-11-03T20:53:28.418Z,6.78
2022-11-03T20:55:57.372Z,7.57
2022-11-03T20:58:28.074Z,6.70
2022-11-03T21:00:56.765Z,8.32
2022-11-03T21:03:57.726Z,7.15
2022-11-03T21:06:19.663Z,7.15
2022-11-03T21:08:49.017Z,7.07
2022-11-03T21:11:24.735Z,7.35
2022-11-03T21:13:54.617Z,7.25
2022-11-03T21:16:40.721Z,7.65
2022-11-03T21:19:39.106Z,7.60
2022-11-03T21:27:32.229Z,7.05
2022-11-03T21:30:00.812Z,8.18
2022-11-03T21:32:29.338Z,7.70
2022-11-03T21:35:01.736Z,6.03
2022-11-03T21:37:31.524Z,5.18
2022-11-03T21:40:02.672Z,8.13
2022-11-03T21:42:49.123Z,8.43
2022-11-03T21:45:19.032Z,7.43
2022-11-03T21:48:13.076Z,8.43
2022-11-03T21:50:42.218Z,7.95
2022-11-03T21:53:11.853Z,7.53
2022-11-03T21:55:40.830Z,7.18
2022-11-03T21:58:09.464Z,5.43
2022-11-03T22:00:38.007Z,5.45
2022-11-03T22:03:06.969Z,8.20
2022-11-03T22:05:35.671Z,7.25
2022-11-03T22:08:08.647Z,7.10
2022-11-03T22:10:40.151Z,7.78
2022-11-03T22:13:08.951Z,6.20
2022-11-03T22:15:55.302Z,7.10
2022-11-03T22:18:24.153Z,7.72
2022-11-03T22:21:12.213Z,7.72
2022-11-03T22:24:07.876Z,6.15
2022-11-03T22:26:53.802Z,6.75
2022-11-03T22:29:39.945Z,6.65
2022-11-03T22:32:15.059Z,4.82
2022-11-03T22:35:01.024Z,7.25
2022-11-03T22:40:15.339Z,7.13
2022-11-03T22:43:01.423Z,6.75
2022-11-03T22:45:49.830Z,6.68
2022-11-03T22:48:18.361Z,6.88
2022-11-03T22:50:46.961Z,6.63
2022-11-03T22:53:32.957Z,6.57
2022-11-03T22:56:06.174Z,7.10
2022-11-03T22:58:34.806Z,6.43
2022-11-03T23:01:07.739Z,7.18
2022-11-03T23:03:38.105Z,6.78
2022-11-03T23:06:08.349Z,7.50
2022-11-03T23:08:40.705Z,7.60
2022-11-03T23:11:16.270Z,6.65
2022-11-03T23:13:45.631Z,7.80
2022-11-03T23:16:16.028Z,7.57
2022-11-03T23:19:05.136Z,8.05
2022-11-03T23:21:34.694Z,3.75
2022-11-03T23:24:22.961Z,7.03
2022-11-03T23:26:52.939Z,5.80
2022-11-03T23:29:24.221Z,7.60
2022-11-03T23:31:52.625Z,7.70
2022-11-03T23:34:21.503Z,6.82
2022-11-03T23:36:50.013Z,6.93
2022-11-03T23:39:19.707Z,6.45
2022-11-03T23:41:48.795Z,7.13
2022-11-03T23:44:18.983Z,5.70
2022-11-03T23:47:08.209Z,6.95
2022-11-03T23:49:36.862Z,7.60
2022-11-03T23:52:05.338Z,7.40
2022-11-03T23:54:33.780Z,8.02
2022-11-03T23:57:19.640Z,7.60
2022-11-03T23:59:49.530Z,6.57
